Time;durP1;ratioP1;P1;durP2;ratioP2;P2;SDS_P1;SDS_P2;PMS_P1;PMS_P2;Temp;Humidity;BMP_temperature;BMP_pressure;BME280_temperature;BME280_humidity;BME280_pressure;Samples;Min_cycle;Max_cycle;Signal;HPM_P1;HPM_P2
2022/04/26 03:37:32;;;;;;;15.70;9.40;;;6.90;99.90;;;;;;5064761;28;20063;-78
2022/04/26 03:39:58;;;;;;;22.02;9.38;;;6.90;99.90;;;;;;5052047;28;20553;-80
2022/04/26 03:42:24;;;;;;;17.07;9.07;;;6.90;99.90;;;;;;5043612;28;20124;-79
2022/04/26 03:44:49;;;;;;;21.63;9.32;;;7.50;99.90;;;;;;5039945;28;20094;-80
2022/04/26 03:47:15;;;;;;;15.50;9.00;;;6.90;99.90;;;;;;5017520;28;20037;-79
2022/04/26 03:49:41;;;;;;;17.43;8.50;;;7.60;99.90;;;;;;5049319;28;20844;-79
2022/04/26 03:52:07;;;;;;;15.85;8.45;;;6.90;99.90;;;;;;5051748;28;20040;-79
2022/04/26 03:54:34;;;;;;;16.30;8.32;;;6.80;99.90;;;;;;5034178;28;20466;-80
2022/04/26 03:57:00;;;;;;;17.85;8.57;;;6.80;99.90;;;;;;5048542;28;20194;-79
2022/04/26 03:59:25;;;;;;;18.52;7.45;;;6.80;99.90;;;;;;5051833;28;20150;-79
2022/04/26 04:01:51;;;;;;;18.43;7.20;;;6.80;99.90;;;;;;5048796;28;20082;-80
2022/04/26 04:04:17;;;;;;;20.10;8.13;;;7.40;99.90;;;;;;5051723;28;20291;-79
2022/04/26 04:06:43;;;;;;;15.68;7.43;;;6.80;99.90;;;;;;5050431;28;20514;-80
2022/04/26 04:09:08;;;;;;;17.73;7.88;;;6.80;99.90;;;;;;5049424;28;20124;-80
2022/04/26 04:11:34;;;;;;;13.98;7.20;;;6.80;99.90;;;;;;5041486;28;20048;-79
2022/04/26 04:14:00;;;;;;;16.58;7.78;;;6.80;99.90;;;;;;5041825;28;20072;-79
2022/04/26 04:16:26;;;;;;;12.57;7.60;;;7.50;99.90;;;;;;5052276;28;20445;-79
2022/04/26 04:21:36;;;;;;;14.07;6.63;;;7.40;99.90;;;;;;5040059;28;20080;-80
2022/04/26 04:24:02;;;;;;;11.57;5.90;;;6.80;99.90;;;;;;5047915;28;20163;-79
2022/04/26 04:26:28;;;;;;;;;;;6.80;99.90;;;;;;5030690;28;20347;-79
2022/04/26 04:28:54;;;;;;;16.58;6.35;;;6.90;99.90;;;;;;5053089;28;19920;-78
2022/04/26 04:31:20;;;;;;;12.73;5.70;;;6.90;99.90;;;;;;5022513;28;20186;-78
2022/04/26 04:33:45;;;;;;;10.93;5.90;;;6.90;99.90;;;;;;5054150;28;20515;-79
2022/04/26 04:36:11;;;;;;;13.25;6.15;;;7.20;99.90;;;;;;5049790;28;20032;-79
2022/04/26 04:38:37;;;;;;;9.70;5.60;;;7.00;99.90;;;;;;5051236;28;20040;-80
2022/04/26 04:41:04;;;;;;;14.43;5.65;;;7.00;99.90;;;;;;5045319;28;20496;-80
2022/04/26 04:43:30;;;;;;;11.48;5.13;;;7.00;99.90;;;;;;5049257;28;20044;-79
2022/04/26 04:45:55;;;;;;;16.27;6.33;;;7.00;99.90;;;;;;5039411;28;20040;-79
2022/04/26 04:48:21;;;;;;;9.27;5.73;;;7.10;99.90;;;;;;5047585;28;20041;-79
2022/04/26 04:50:47;;;;;;;11.98;5.53;;;7.00;99.90;;;;;;5054718;28;20700;-79
2022/04/26 04:53:13;;;;;;;16.27;6.07;;;7.20;99.90;;;;;;5056483;28;20036;-79
2022/04/26 04:55:40;;;;;;;12.90;5.70;;;7.00;99.90;;;;;;5053286;28;20076;-79
2022/04/26 04:58:06;;;;;;;11.50;6.50;;;7.00;99.90;;;;;;5054487;28;20329;-79
2022/04/26 05:00:32;;;;;;;14.07;6.00;;;6.90;99.90;;;;;;5053022;28;20036;-79
2022/04/26 05:02:58;;;;;;;16.27;6.05;;;6.90;99.90;;;;;;5042128;28;20446;-79
2022/04/26 05:05:24;;;;;;;14.30;6.00;;;6.90;99.90;;;;;;5037079;28;20028;-78
2022/04/26 05:07:50;;;;;;;10.32;5.75;;;6.90;99.90;;;;;;5026288;28;20299;-79
2022/04/26 05:10:16;;;;;;;13.90;5.63;;;7.00;99.90;;;;;;5040682;28;20024;-78
2022/04/26 05:12:41;;;;;;;17.27;6.20;;;7.00;99.90;;;;;;5043847;28;20070;-78
2022/04/26 05:15:07;;;;;;;13.37;5.60;;;7.00;99.90;;;;;;5039105;28;20079;-79
2022/04/26 05:17:33;;;;;;;14.73;5.68;;;7.00;99.90;;;;;;5047833;28;20041;-79
2022/04/26 05:19:59;;;;;;;12.65;5.07;;;7.10;99.90;;;;;;5050454;28;20128;-79
2022/04/26 05:22:24;;;;;;;10.55;5.00;;;7.10;99.90;;;;;;5047530;28;20056;-78
2022/04/26 05:24:53;;;;;;;20.17;5.70;;;7.20;99.90;;;;;;5036721;28;20041;-79
2022/04/26 05:27:20;;;;;;;11.32;5.00;;;7.20;99.90;;;;;;5037932;28;20484;-79
2022/04/26 05:29:45;;;;;;;10.95;5.45;;;7.30;99.90;;;;;;5041644;28;20044;-80
2022/04/26 05:32:11;;;;;;;11.20;5.83;;;7.30;99.90;;;;;;5040669;28;20386;-78
2022/04/26 05:34:37;;;;;;;11.70;6.00;;;7.40;99.90;;;;;;5046539;28;20120;-80
2022/04/26 05:37:03;;;;;;;10.88;5.55;;;7.50;99.90;;;;;;5036499;28;20045;-80
2022/04/26 05:39:28;;;;;;;7.80;5.15;;;7.50;99.90;;;;;;5033888;28;20570;-79
2022/04/26 05:41:54;;;;;;;15.57;6.37;;;7.60;99.90;;;;;;5043472;28;20508;-79
2022/04/26 05:44:20;;;;;;;13.60;5.97;;;7.70;99.90;;;;;;5044856;28;20496;-79
2022/04/26 05:46:45;;;;;;;13.13;5.40;;;8.40;99.90;;;;;;5034284;28;20288;-79
2022/04/26 05:49:11;;;;;;;11.13;6.00;;;7.90;99.90;;;;;;5041911;28;20038;-79
2022/04/26 05:51:37;;;;;;;11.90;5.60;;;8.00;99.90;;;;;;5014927;28;20048;-80
2022/04/26 05:54:02;;;;;;;10.20;5.60;;;8.20;99.90;;;;;;5034566;28;20110;-80
2022/04/26 05:56:28;;;;;;;9.50;5.00;;;8.30;99.90;;;;;;5040263;28;20037;-79
2022/04/26 05:58:54;;;;;;;11.48;5.30;;;8.50;99.90;;;;;;5036369;28;20048;-79
2022/04/26 06:01:19;;;;;;;10.50;5.33;;;8.60;99.90;;;;;;5023955;28;20591;-79
2022/04/26 06:03:45;;;;;;;11.73;5.40;;;8.70;99.90;;;;;;5033795;28;20091;-79
2022/04/26 06:06:11;;;;;;;10.88;4.65;;;9.00;99.90;;;;;;5040601;28;20512;-79
2022/04/26 06:08:36;;;;;;;17.20;5.30;;;8.70;99.90;;;;;;5040535;28;20037;-80
2022/04/26 06:11:02;;;;;;;10.90;4.70;;;8.70;99.90;;;;;;5033835;28;20283;-78
2022/04/26 06:13:28;;;;;;;16.27;4.93;;;8.90;99.90;;;;;;5042319;28;20033;-79
2022/04/26 06:15:54;;;;;;;10.73;4.07;;;9.10;99.90;;;;;;5040053;28;20044;-80
2022/04/26 06:18:20;;;;;;;10.77;4.18;;;9.20;99.90;;;;;;5037351;28;20558;-78
2022/04/26 06:20:45;;;;;;;9.47;4.00;;;9.20;99.90;;;;;;5037621;28;20155;-79
2022/04/26 06:23:11;;;;;;;11.63;3.93;;;9.10;99.90;;;;;;5039626;28;20792;-79
2022/04/26 06:25:39;;;;;;;10.33;3.80;;;9.10;99.90;;;;;;5044737;28;20511;-80
2022/04/26 06:28:06;;;;;;;10.77;4.03;;;9.20;99.90;;;;;;5043763;28;20635;-79
2022/04/26 06:30:32;;;;;;;11.13;3.45;;;9.20;99.90;;;;;;5042388;28;20040;-79
2022/04/26 06:32:57;;;;;;;10.40;3.40;;;9.10;99.90;;;;;;5035316;28;20073;-79
2022/04/26 06:35:23;;;;;;;9.83;3.27;;;9.00;99.90;;;;;;5041269;28;20069;-79
2022/04/26 06:37:49;;;;;;;10.38;3.53;;;9.00;99.90;;;;;;5036986;28;20287;-79
2022/04/26 06:40:15;;;;;;;7.43;3.37;;;9.00;99.90;;;;;;5037378;28;20045;-79
2022/04/26 06:42:40;;;;;;;8.60;3.13;;;9.20;99.90;;;;;;5025487;28;20310;-79
2022/04/26 06:45:07;;;;;;;9.30;2.87;;;9.80;99.90;;;;;;5037254;28;20040;-80
2022/04/26 06:47:32;;;;;;;10.10;2.97;;;10.50;99.90;;;;;;5030963;28;20127;-79
2022/04/26 06:49:58;;;;;;;6.30;2.67;;;11.00;99.90;;;;;;5019783;28;20117;-79
2022/04/26 06:52:24;;;;;;;8.90;2.67;;;11.40;99.90;;;;;;5039835;28;20323;-79
2022/04/26 06:54:50;;;;;;;10.90;2.63;;;11.20;99.90;;;;;;5038315;28;20041;-78
2022/04/26 06:57:16;;;;;;;9.95;2.38;;;11.30;99.90;;;;;;5026166;28;20037;-80
2022/04/26 06:59:41;;;;;;;8.73;2.63;;;11.20;99.90;;;;;;5024823;28;20099;-79
2022/04/26 07:02:07;;;;;;;7.45;2.70;;;11.10;99.90;;;;;;5042269;28;20041;-79
2022/04/26 07:04:33;;;;;;;8.93;2.75;;;11.00;99.90;;;;;;5039868;28;20033;-78
2022/04/26 07:06:59;;;;;;;7.82;2.53;;;11.00;99.90;;;;;;5041572;28;20049;-78
2022/04/26 07:09:25;;;;;;;9.80;2.95;;;10.80;99.90;;;;;;5039957;28;20048;-79
2022/04/26 07:11:52;;;;;;;7.95;2.70;;;10.50;99.90;;;;;;5042138;28;20084;-79
2022/04/26 07:14:17;;;;;;;9.27;2.95;;;10.50;99.90;;;;;;5040221;28;20038;-79
2022/04/26 07:16:48;;;;;;;6.33;2.60;;;10.50;99.90;;;;;;5043459;28;20030;-80
2022/04/26 07:19:14;;;;;;;5.72;2.45;;;10.70;99.90;;;;;;5035223;28;20283;-79
2022/04/26 07:21:44;;;;;;;8.85;2.60;;;10.80;99.90;;;;;;5047449;28;20049;-79
2022/04/26 07:24:11;;;;;;;5.93;2.60;;;10.70;99.90;;;;;;5043125;28;20524;-79
2022/04/26 07:26:37;;;;;;;7.93;2.55;;;10.80;99.90;;;;;;5034138;28;20045;-79
2022/04/26 07:29:03;;;;;;;9.30;2.78;;;11.10;99.90;;;;;;5041535;28;20033;-79
2022/04/26 07:31:30;;;;;;;9.30;2.58;;;11.60;99.90;;;;;;5041480;28;20037;-78
2022/04/26 07:36:40;;;;;;;7.10;2.75;;;12.00;99.90;;;;;;5040250;28;20057;-79
2022/04/26 07:39:06;;;;;;;7.03;2.67;;;11.80;99.90;;;;;;5043541;28;20045;-80
2022/04/26 07:41:32;;;;;;;6.57;3.08;;;11.50;99.90;;;;;;5034184;28;20048;-80
2022/04/26 07:43:58;;;;;;;8.52;2.85;;;11.10;99.90;;;;;;5051681;28;20055;-80
2022/04/26 07:46:24;;;;;;;9.02;3.30;;;10.90;99.90;;;;;;5037994;28;20454;-80
2022/04/26 07:48:51;;;;;;;6.95;2.90;;;11.00;99.90;;;;;;5046202;28;20029;-80
2022/04/26 07:51:18;;;;;;;7.00;3.08;;;11.10;99.90;;;;;;5053018;28;20530;-79
2022/04/26 07:53:44;;;;;;;8.90;3.72;;;10.80;99.90;;;;;;5029485;28;20038;-78
2022/04/26 07:56:10;;;;;;;7.38;3.00;;;10.80;99.90;;;;;;5046584;28;20083;-79
2022/04/26 07:58:36;;;;;;;7.07;2.85;;;11.10;99.90;;;;;;5057826;28;20056;-79
2022/04/26 08:01:03;;;;;;;8.13;2.80;;;11.30;99.90;;;;;;5043850;28;20051;-79
2022/04/26 08:03:32;;;;;;;5.93;2.80;;;11.70;99.90;;;;;;5041762;28;20289;-79
2022/04/26 08:05:58;;;;;;;6.28;2.35;;;11.80;99.90;;;;;;5038628;28;20500;-80
2022/04/26 08:08:24;;;;;;;6.18;2.15;;;11.90;99.90;;;;;;5050123;28;20188;-80
2022/04/26 08:10:50;;;;;;;5.30;2.50;;;11.70;99.90;;;;;;5052726;28;20064;-80
2022/04/26 08:13:16;;;;;;;;;;;11.70;99.90;;;;;;5054948;28;20549;-80
2022/04/26 08:15:41;;;;;;;7.35;2.72;;;11.90;99.90;;;;;;5054578;28;19948;-80
2022/04/26 08:18:07;;;;;;;8.05;2.67;;;12.20;99.90;;;;;;5047169;28;20029;-80
2022/04/26 08:20:33;;;;;;;4.47;2.45;;;12.80;99.90;;;;;;5056609;28;20037;-79
2022/04/26 08:22:59;;;;;;;3.40;1.90;;;13.30;99.90;;;;;;5053629;28;20057;-79
2022/04/26 08:28:10;;;;;;;7.63;2.38;;;13.50;99.90;;;;;;5058145;28;20037;-80
2022/04/26 08:30:36;;;;;;;5.70;2.35;;;13.80;99.90;;;;;;5038601;28;20048;-82
2022/04/26 08:33:02;;;;;;;5.22;2.40;;;14.40;99.90;;;;;;5039738;28;20041;-80
2022/04/26 08:35:28;;;;;;;4.68;2.00;;;14.80;99.90;;;;;;5037121;28;20049;-80
2022/04/26 08:37:54;;;;;;;5.75;2.38;;;14.90;99.90;;;;;;5060042;28;20080;-79
2022/04/26 08:40:19;;;;;;;2.63;1.60;;;14.80;99.90;;;;;;5057385;28;20046;-76
2022/04/26 08:42:46;;;;;;;3.42;1.88;;;14.50;99.90;;;;;;5037388;28;20440;-80
2022/04/26 08:45:17;;;;;;;4.07;1.80;;;14.50;99.90;;;;;;5054415;28;20072;-79
2022/04/26 08:53:16;;;;;;;5.07;1.88;;;14.00;99.90;;;;;;5052278;28;20497;-79
2022/04/26 08:55:44;;;;;;;5.00;1.90;;;14.00;99.90;;;;;;5054231;28;20400;-79
2022/04/26 08:58:11;;;;;;;6.55;2.03;;;14.10;99.90;;;;;;5053656;28;20155;-79
2022/04/26 09:00:39;;;;;;;3.53;1.75;;;13.90;99.90;;;;;;5037381;28;20049;-80
2022/04/26 09:03:07;;;;;;;5.35;2.00;;;14.20;99.90;;;;;;5053704;28;20409;-79
2022/04/26 09:05:34;;;;;;;5.03;1.70;;;14.70;99.90;;;;;;5037511;28;20048;-79
2022/04/26 09:08:00;;;;;;;4.50;1.90;;;15.20;99.90;;;;;;5054007;28;20052;-80
2022/04/26 09:10:26;;;;;;;4.50;2.08;;;15.60;99.90;;;;;;5037327;28;20037;-79
2022/04/26 09:13:14;;;;;;;7.70;2.17;;;15.40;99.90;;;;;;5037120;28;20102;-80
2022/04/26 09:15:51;;;;;;;5.97;2.08;;;15.50;99.90;;;;;;5037155;28;20079;-79
2022/04/26 09:18:26;;;;;;;4.80;1.67;;;16.00;99.40;;;;;;5050147;28;20397;-79
2022/04/26 09:21:13;;;;;;;6.00;1.67;;;16.00;99.60;;;;;;5053861;28;20077;-80
2022/04/26 09:23:39;;;;;;;3.95;1.90;;;16.20;99.30;;;;;;5032923;28;20052;-80
2022/04/26 09:26:08;;;;;;;;;;;16.40;98.30;;;;;;5049264;28;20120;-79
2022/04/26 09:28:37;;;;;;;3.65;1.45;;;16.50;98.40;;;;;;5051212;28;20339;-80
2022/04/26 09:31:17;;;;;;;3.58;1.38;;;16.50;97.20;;;;;;5043615;28;20087;-79
2022/04/26 09:33:47;;;;;;;6.78;1.60;;;17.40;97.40;;;;;;5041221;28;20056;-79
2022/04/26 09:36:14;;;;;;;4.47;1.90;;;17.70;97.00;;;;;;5035185;28;20103;-79
2022/04/26 09:38:47;;;;;;;4.78;1.70;;;16.90;96.30;;;;;;5037778;28;20061;-80
2022/04/26 09:41:13;;;;;;;5.53;2.03;;;16.80;97.00;;;;;;5033148;28;20041;-79
2022/04/26 09:43:40;;;;;;;5.38;1.83;;;16.80;97.40;;;;;;5037837;28;20033;-80
2022/04/26 09:46:06;;;;;;;;;;;16.10;97.40;;;;;;5039332;28;20033;-80
2022/04/26 09:48:35;;;;;;;3.60;1.70;;;15.80;98.10;;;;;;5044125;28;19917;-78
2022/04/26 09:51:06;;;;;;;4.68;1.63;;;15.80;97.50;;;;;;5044880;28;20120;-80
2022/04/26 09:53:33;;;;;;;4.70;1.70;;;15.90;98.10;;;;;;5023208;28;20482;-80
2022/04/26 09:56:04;;;;;;;3.30;1.85;;;16.60;97.40;;;;;;5038004;28;20045;-80
2022/04/26 09:58:30;;;;;;;3.20;1.60;;;17.60;96.90;;;;;;5049068;28;20041;-80
2022/04/26 10:00:59;;;;;;;5.38;1.85;;;17.40;95.10;;;;;;5054923;28;20482;-80
2022/04/26 10:03:32;;;;;;;3.92;1.60;;;17.60;95.00;;;;;;5034671;28;20489;-79
2022/04/26 10:06:07;;;;;;;2.90;1.70;;;18.30;94.60;;;;;;5053286;28;20045;-78
2022/04/26 10:08:36;;;;;;;4.53;1.60;;;18.20;93.40;;;;;;5048509;28;20033;-79
2022/04/26 10:11:03;;;;;;;3.67;1.63;;;18.50;94.10;;;;;;5033069;28;20389;-80
2022/04/26 10:13:32;;;;;;;4.40;1.60;;;18.10;93.20;;;;;;5032632;28;20045;-79
2022/04/26 10:16:21;;;;;;;6.65;1.85;;;18.30;93.70;;;;;;5042438;28;20116;-80
2022/04/26 10:18:48;;;;;;;3.42;1.40;;;17.70;93.60;;;;;;5036099;28;20063;-80
2022/04/26 10:21:23;;;;;;;3.90;1.67;;;16.90;93.10;;;;;;5036132;28;20037;-79
2022/04/26 10:23:51;;;;;;;5.10;1.50;;;16.40;94.20;;;;;;5037027;28;20089;-79
2022/04/26 10:26:23;;;;;;;3.97;1.60;;;17.20;94.80;;;;;;5032647;28;20072;-80
2022/04/26 10:28:50;;;;;;;5.45;1.45;;;17.20;93.50;;;;;;5037488;28;20047;-80
2022/04/26 10:31:17;;;;;;;4.22;1.50;;;17.40;93.20;;;;;;5042603;28;20480;-84
2022/04/26 10:33:47;;;;;;;5.90;1.90;;;18.10;92.60;;;;;;5037754;28;20488;-82
2022/04/26 10:36:28;;;;;;;6.63;2.15;;;18.50;92.60;;;;;;5040430;28;20040;-83
2022/04/26 10:39:06;;;;;;;4.15;1.55;;;19.10;92.30;;;;;;5038416;28;20041;-83
2022/04/26 10:41:35;;;;;;;3.05;1.50;;;18.70;92.20;;;;;;5042046;28;20037;-81
2022/04/26 10:44:26;;;;;;;5.38;1.90;;;18.10;91.60;;;;;;5042632;28;20044;-84
2022/04/26 10:46:57;;;;;;;5.63;2.10;;;17.70;91.90;;;;;;5033565;28;20053;-83
2022/04/26 10:49:26;;;;;;;5.75;1.52;;;18.10;92.00;;;;;;5039838;28;20041;-84
2022/04/26 10:51:56;;;;;;;4.15;1.70;;;18.90;93.20;;;;;;5044672;28;20096;-83
2022/04/26 10:55:05;;;;;;;6.28;1.85;;;19.00;93.10;;;;;;5042321;28;20040;-83
2022/04/26 10:57:35;;;;;;;7.50;1.55;;;19.00;92.50;;;;;;5033504;28;20045;-84
2022/04/26 11:00:09;;;;;;;4.18;1.50;;;18.30;91.70;;;;;;5039385;28;20091;-84
2022/04/26 11:02:40;;;;;;;3.22;1.40;;;18.50;92.20;;;;;;5036654;28;20049;-84
2022/04/26 11:05:08;;;;;;;3.80;1.60;;;18.80;91.00;;;;;;5040462;28;20052;-84
2022/04/26 11:07:35;;;;;;;3.92;1.83;;;19.10;90.30;;;;;;5042041;28;20037;-83
2022/04/26 11:10:04;;;;;;;4.47;1.83;;;19.40;89.60;;;;;;5020560;28;20041;-86
2022/04/26 11:12:33;;;;;;;3.53;1.30;;;19.50;90.60;;;;;;5039576;28;20412;-83
2022/04/26 11:15:14;;;;;;;4.95;2.03;;;19.40;90.30;;;;;;5034120;28;20053;-83
2022/04/26 11:17:41;;;;;;;4.20;1.58;;;18.90;90.90;;;;;;5036084;28;20069;-83
2022/04/26 11:20:13;;;;;;;5.07;1.63;;;18.90;90.40;;;;;;5033834;28;20041;-83
2022/04/26 11:22:51;;;;;;;3.72;1.73;;;19.20;91.00;;;;;;5036514;28;20069;-84
2022/04/26 11:28:11;;;;;;;3.25;1.38;;;19.00;87.90;;;;;;5045735;28;20045;-84
2022/04/26 11:30:54;;;;;;;2.92;1.52;;;19.00;86.90;;;;;;5044121;28;20037;-83
2022/04/26 11:33:22;;;;;;;2.92;1.52;;;18.80;88.10;;;;;;5056168;28;20119;-83
2022/04/26 11:36:00;;;;;;;5.88;1.75;;;19.30;87.40;;;;;;5050981;28;20724;-84
2022/04/26 11:38:27;;;;;;;5.00;2.05;;;19.10;88.60;;;;;;5053683;28;20515;-83
2022/04/26 11:40:55;;;;;;;3.67;1.50;;;18.90;89.80;;;;;;5056785;28;20500;-84
2022/04/26 11:43:23;;;;;;;4.22;1.92;;;18.70;89.30;;;;;;5054637;28;20044;-83
2022/04/26 11:45:51;;;;;;;3.10;1.77;;;18.10;88.30;;;;;;5037173;28;20041;-83
2022/04/26 11:48:19;;;;;;;4.20;1.60;;;18.00;89.60;;;;;;5032419;28;20115;-83
2022/04/26 11:50:47;;;;;;;4.57;1.42;;;18.10;90.00;;;;;;5044744;28;20435;-83
2022/04/26 11:53:18;;;;;;;3.45;1.60;;;17.80;90.00;;;;;;5048624;28;20044;-83
2022/04/26 11:56:05;;;;;;;5.60;1.77;;;17.50;90.40;;;;;;5041125;28;20044;-83
2022/04/26 11:58:33;;;;;;;4.13;1.65;;;18.10;90.20;;;;;;5046676;28;20052;-83
2022/04/26 12:01:11;;;;;;;3.10;1.40;;;18.10;89.40;;;;;;5053870;28;20048;-83
2022/04/26 12:03:55;;;;;;;3.17;1.45;;;17.80;88.40;;;;;;5055981;28;20433;-83
2022/04/26 12:06:32;;;;;;;5.35;1.80;;;18.00;88.40;;;;;;5054310;28;20071;-84
2022/04/26 12:09:05;;;;;;;4.40;1.77;;;18.50;88.10;;;;;;5055156;28;20041;-82
2022/04/26 12:11:36;;;;;;;2.85;1.40;;;19.20;87.40;;;;;;5056358;28;20056;-83
2022/04/26 12:14:12;;;;;;;2.42;1.40;;;19.60;87.50;;;;;;5041063;28;20109;-83
2022/04/26 12:16:49;;;;;;;3.63;1.95;;;19.80;84.80;;;;;;5050976;28;20119;-84
2022/04/26 12:19:15;;;;;;;5.18;1.80;;;20.30;85.40;;;;;;5055025;28;20055;-84
2022/04/26 12:21:52;;;;;;;3.95;1.60;;;20.40;84.70;;;;;;5055332;28;20044;-84
2022/04/26 12:24:22;;;;;;;3.03;1.25;;;19.80;85.30;;;;;;5051599;28;20045;-84
2022/04/26 12:27:02;;;;;;;3.83;1.60;;;19.90;85.60;;;;;;5043485;28;20032;-83
2022/04/26 12:29:39;;;;;;;3.53;1.48;;;20.00;84.70;;;;;;5045321;28;20040;-83
2022/04/26 12:32:10;;;;;;;3.80;1.60;;;19.90;86.50;;;;;;5038218;28;20055;-82
2022/04/26 12:34:45;;;;;;;4.43;1.70;;;20.00;84.10;;;;;;5052116;28;20037;-84
2022/04/26 12:37:25;;;;;;;3.90;1.33;;;20.20;85.30;;;;;;5035123;28;20048;-84
2022/04/26 12:39:54;;;;;;;4.03;1.63;;;19.80;84.10;;;;;;5032100;28;20739;-84
2022/04/26 12:42:30;;;;;;;5.53;1.60;;;19.80;85.20;;;;;;5043487;28;20082;-83
2022/04/26 12:45:03;;;;;;;2.72;1.20;;;18.90;84.10;;;;;;5050089;28;20043;-84
2022/04/26 12:50:33;;;;;;;4.75;1.60;;;18.60;85.20;;;;;;5068795;28;20048;-84
2022/04/26 12:53:05;;;;;;;4.30;1.63;;;18.90;82.60;;;;;;5050977;28;20081;-84
2022/04/26 12:55:36;;;;;;;3.42;1.40;;;19.50;83.40;;;;;;5040106;28;20048;-83
2022/04/26 12:58:06;;;;;;;2.83;1.45;;;19.80;80.00;;;;;;5049465;28;20044;-83
2022/04/26 13:00:33;;;;;;;4.43;1.50;;;19.10;83.40;;;;;;5068762;28;20040;-82
2022/04/26 13:03:04;;;;;;;2.75;1.55;;;18.40;84.30;;;;;;5054178;28;20060;-83
2022/04/26 13:05:45;;;;;;;4.55;1.60;;;18.60;85.20;;;;;;5054696;28;20040;-84
2022/04/26 13:08:12;;;;;;;4.45;1.50;;;18.90;85.10;;;;;;5047922;28;20040;-84
2022/04/26 13:10:41;;;;;;;4.40;1.70;;;19.00;83.10;;;;;;5047670;28;20036;-83
2022/04/26 13:13:08;;;;;;;5.65;2.00;;;19.40;82.40;;;;;;5046959;28;20493;-84
2022/04/26 13:15:35;;;;;;;4.43;1.90;;;18.60;83.60;;;;;;5055185;28;20068;-84
2022/04/26 13:18:01;;;;;;;3.95;1.70;;;18.00;84.50;;;;;;5053164;28;20052;-84
2022/04/26 13:20:27;;;;;;;;;;;17.80;84.90;;;;;;5055417;28;20051;-83
2022/04/26 13:22:53;;;;;;;2.90;1.27;;;18.20;85.20;;;;;;5054043;28;19924;-81
2022/04/26 13:25:19;;;;;;;5.78;2.00;;;18.70;85.50;;;;;;5035219;28;20120;-83
2022/04/26 13:27:48;;;;;;;3.33;1.58;;;18.90;84.00;;;;;;5021557;28;20044;-82
2022/04/26 13:30:15;;;;;;;4.82;1.85;;;18.50;84.00;;;;;;5036848;28;20079;-83
2022/04/26 13:32:41;;;;;;;2.78;1.75;;;18.40;84.30;;;;;;5055026;28;20036;-81
2022/04/26 13:35:08;;;;;;;4.18;2.00;;;18.20;85.30;;;;;;5054562;28;20052;-82
2022/04/26 13:37:34;;;;;;;3.67;1.55;;;18.00;85.90;;;;;;5051115;28;20539;-81
2022/04/26 13:40:01;;;;;;;4.22;2.00;;;17.60;86.60;;;;;;5051973;28;20055;-81
2022/04/26 13:42:30;;;;;;;4.80;1.83;;;17.80;87.10;;;;;;5068218;28;20072;-82
2022/04/26 13:44:56;;;;;;;5.60;2.20;;;17.80;88.10;;;;;;5064710;28;20400;-81
2022/04/26 13:47:22;;;;;;;4.15;2.20;;;17.60;87.60;;;;;;5057056;28;20102;-81
2022/04/26 13:49:48;;;;;;;4.63;1.92;;;17.80;86.30;;;;;;5054249;28;20082;-81
2022/04/26 13:52:14;;;;;;;7.10;2.10;;;17.70;89.00;;;;;;5059820;28;20518;-81
2022/04/26 13:54:42;;;;;;;7.03;2.55;;;17.50;88.40;;;;;;5051849;28;20049;-81
2022/04/26 13:57:08;;;;;;;5.72;2.00;;;17.50;88.40;;;;;;5053651;28;20055;-82
2022/04/26 13:59:34;;;;;;;4.95;1.80;;;17.30;89.70;;;;;;5057588;28;20064;-82
2022/04/26 14:02:00;;;;;;;4.18;2.00;;;17.30;88.90;;;;;;5038884;28;20079;-82
2022/04/26 14:04:26;;;;;;;4.35;1.90;;;17.00;89.40;;;;;;5039508;28;20120;-81
2022/04/26 14:06:52;;;;;;;6.45;2.17;;;16.90;89.50;;;;;;5045981;28;20506;-81
2022/04/26 14:09:18;;;;;;;4.18;2.33;;;17.00;90.30;;;;;;5066725;28;20059;-81
2022/04/26 14:11:46;;;;;;;3.92;2.17;;;17.00;90.80;;;;;;5039027;28;20102;-81
2022/04/26 14:22:30;;;;;;;4.07;2.05;;;16.60;89.80;;;;;;5062847;28;20436;-80
2022/04/26 14:25:03;;;;;;;4.97;2.10;;;16.10;89.60;;;;;;5044347;28;20048;-82
2022/04/26 14:27:30;;;;;;;3.67;1.90;;;16.00;90.40;;;;;;5058687;28;20041;-82
2022/04/26 14:29:56;;;;;;;7.45;2.13;;;16.20;90.40;;;;;;5057117;28;20493;-80
2022/04/26 14:32:22;;;;;;;5.60;2.08;;;16.10;90.50;;;;;;5037245;28;20045;-81
2022/04/26 14:34:48;;;;;;;7.10;1.70;;;15.80;90.80;;;;;;5039595;28;20045;-82
2022/04/26 14:37:15;;;;;;;3.00;1.90;;;15.80;90.60;;;;;;5062225;28;20523;-81
2022/04/26 14:39:41;;;;;;;5.25;1.98;;;15.60;90.80;;;;;;5063856;28;20036;-82
2022/04/26 14:42:08;;;;;;;4.22;2.10;;;15.90;91.20;;;;;;5049774;28;20025;-82
2022/04/26 14:44:34;;;;;;;6.10;2.10;;;15.80;90.60;;;;;;5052224;28;20057;-82
2022/04/26 14:47:02;;;;;;;3.45;1.90;;;15.60;91.10;;;;;;5050430;28;20040;-81
2022/04/26 14:49:29;;;;;;;3.45;1.80;;;15.50;91.30;;;;;;5049729;28;20091;-81
2022/04/26 14:51:55;;;;;;;4.13;2.00;;;15.60;91.70;;;;;;5059565;28;20086;-82
2022/04/26 14:54:21;;;;;;;5.20;2.00;;;15.50;91.30;;;;;;5056943;28;20071;-81
2022/04/26 14:56:47;;;;;;;6.10;2.20;;;15.50;92.10;;;;;;5062548;28;20122;-82
2022/04/26 14:59:15;;;;;;;4.78;2.20;;;15.70;92.10;;;;;;5046921;28;20141;-81
2022/04/26 15:01:46;;;;;;;6.25;1.98;;;15.70;91.20;;;;;;5055850;28;20032;-82
2022/04/26 15:04:12;;;;;;;4.45;1.50;;;15.80;91.30;;;;;;5045162;28;20169;-81
2022/04/26 15:06:38;;;;;;;4.68;1.60;;;15.90;90.50;;;;;;5060691;28;20039;-81
2022/04/26 15:11:48;;;;;;;3.85;2.20;;;15.50;91.50;;;;;;5053135;28;20384;-81
2022/04/26 15:16:58;;;;;;;4.47;2.25;;;14.80;92.60;;;;;;5060808;28;20396;-82
2022/04/26 15:19:24;;;;;;;3.88;1.80;;;14.70;93.20;;;;;;5060934;28;20033;-81
2022/04/26 15:21:50;;;;;;;4.53;1.90;;;14.70;92.50;;;;;;5051022;28;20032;-81
2022/04/26 15:24:18;;;;;;;7.35;2.15;;;14.90;92.40;;;;;;5067796;28;20063;-81
2022/04/26 15:26:44;;;;;;;4.70;1.70;;;15.10;91.70;;;;;;5066137;28;20055;-81
2022/04/26 15:29:11;;;;;;;3.05;1.85;;;15.30;91.60;;;;;;5059130;28;20036;-82
2022/04/26 15:31:37;;;;;;;4.15;2.10;;;15.30;91.90;;;;;;5065122;28;20094;-83
2022/04/26 15:34:03;;;;;;;5.22;2.00;;;15.20;92.40;;;;;;5042650;28;20045;-81
2022/04/26 15:36:29;;;;;;;6.38;2.20;;;15.10;92.70;;;;;;5036417;28;20033;-81
2022/04/26 15:38:58;;;;;;;5.25;2.40;;;15.10;93.00;;;;;;5069681;28;20091;-81
2022/04/26 15:41:25;;;;;;;5.75;2.30;;;15.00;92.90;;;;;;5060574;28;20512;-81
2022/04/26 15:43:53;;;;;;;5.50;1.90;;;15.10;93.10;;;;;;5045224;28;20040;-83
2022/04/26 15:46:24;;;;;;;4.72;2.17;;;15.00;91.80;;;;;;5035879;28;20048;-82
2022/04/26 15:48:52;;;;;;;6.15;1.80;;;14.70;91.70;;;;;;5031546;28;20041;-81
2022/04/26 15:51:18;;;;;;;4.47;2.17;;;14.40;91.90;;;;;;5067687;28;20044;-82
2022/04/26 15:53:47;;;;;;;5.15;2.10;;;14.20;92.20;;;;;;5041931;28;20045;-80
2022/04/26 15:59:21;;;;;;;6.22;2.25;;;15.10;92.60;;;;;;5025557;28;20041;-83
2022/04/26 16:01:52;;;;;;;3.42;1.80;;;14.20;92.10;;;;;;5034975;28;20032;-83
2022/04/26 16:04:25;;;;;;;7.53;2.28;;;14.00;92.50;;;;;;5065903;28;20036;-82
2022/04/26 16:07:38;;;;;;;3.83;2.13;;;14.00;92.70;;;;;;5047329;28;20082;-82
2022/04/26 16:21:03;;;;;;;6.30;2.30;;;14.10;93.30;;;;;;5042709;28;20139;-82
2022/04/26 16:23:29;;;;;;;5.18;2.17;;;14.00;93.80;;;;;;5042048;28;20049;-81
2022/04/26 16:26:01;;;;;;;6.25;2.20;;;13.90;93.70;;;;;;5049952;28;20354;-82
2022/04/26 16:28:29;;;;;;;4.53;2.05;;;13.80;94.20;;;;;;5042121;28;20040;-81
2022/04/26 16:30:55;;;;;;;4.82;2.22;;;13.80;94.40;;;;;;5048801;28;20115;-81
2022/04/26 16:33:21;;;;;;;4.60;2.08;;;14.00;94.40;;;;;;5053806;28;20888;-80
2022/04/26 16:35:46;;;;;;;3.88;2.35;;;14.00;93.60;;;;;;5047745;28;20466;-82
2022/04/26 16:38:13;;;;;;;5.80;2.60;;;13.70;93.90;;;;;;5036371;28;20117;-81
2022/04/26 16:40:39;;;;;;;8.80;2.42;;;13.80;94.20;;;;;;5048090;28;20060;-81
2022/04/26 16:43:05;;;;;;;3.63;1.90;;;13.80;94.00;;;;;;5035707;28;20085;-80
2022/04/26 16:45:31;;;;;;;;;;;13.50;94.00;;;;;;5052489;28;20116;-81
2022/04/26 16:47:57;;;;;;;7.07;2.30;;;13.40;94.10;;;;;;5053347;28;20038;-81
2022/04/26 16:50:23;;;;;;;6.03;2.20;;;13.30;94.10;;;;;;5034477;28;20309;-81
2022/04/26 16:52:49;;;;;;;4.47;2.15;;;13.10;94.10;;;;;;5053433;28;20056;-82
2022/04/26 16:55:16;;;;;;;3.75;2.00;;;13.20;93.90;;;;;;5041970;28;20120;-81
2022/04/26 16:57:41;;;;;;;5.93;2.00;;;12.90;94.00;;;;;;5043404;28;20350;-82
2022/04/26 17:00:08;;;;;;;8.90;2.70;;;12.90;94.60;;;;;;5053463;28;20039;-81
2022/04/26 17:02:33;;;;;;;;;;;13.00;94.40;;;;;;5037009;28;20482;-80
2022/04/26 17:04:59;;;;;;;2.95;1.65;;;13.00;94.30;;;;;;5052450;28;19970;-81
2022/04/26 17:07:25;;;;;;;4.72;2.10;;;12.90;94.70;;;;;;5049524;28;20532;-80
2022/04/26 17:09:52;;;;;;;4.70;2.10;;;12.80;94.50;;;;;;5053265;28;20060;-79
2022/04/26 17:12:18;;;;;;;4.95;2.63;;;12.70;95.10;;;;;;5044148;28;20497;-82
2022/04/26 17:14:44;;;;;;;;;;;12.50;95.70;;;;;;5057706;28;20492;-80
2022/04/26 17:17:13;;;;;;;5.25;1.77;;;12.50;95.90;;;;;;5033304;28;19920;-80